sensor_id;sensor_type;location;lat;lon;timestamp;temperature;humidity
13186;DHT22;6658;53.080;7.428;2023-08-06T00:01:44;13.90;99.90
13186;DHT22;6658;53.080;7.428;2023-08-06T00:04:19;13.90;99.90
13186;DHT22;6658;53.080;7.428;2023-08-06T00:06:51;13.90;99.90
13186;DHT22;6658;53.080;7.428;2023-08-06T00:09:17;13.80;99.90
13186;DHT22;6658;53.080;7.428;2023-08-06T00:11:43;13.80;99.90
13186;DHT22;6658;53.080;7.428;2023-08-06T00:17:08;13.70;99.90
13186;DHT22;6658;53.080;7.428;2023-08-06T00:19:46;13.80;99.90
13186;DHT22;6658;53.080;7.428;2023-08-06T00:22:20;13.70;99.90
13186;DHT22;6658;53.080;7.428;2023-08-06T00:25:21;13.70;99.90
13186;DHT22;6658;53.080;7.428;2023-08-06T00:27:47;13.70;99.90
13186;DHT22;6658;53.080;7.428;2023-08-06T00:30:22;13.60;99.90
13186;DHT22;6658;53.080;7.428;2023-08-06T00:32:57;13.60;99.90
13186;DHT22;6658;53.080;7.428;2023-08-06T00:35:46;13.60;99.90
13186;DHT22;6658;53.080;7.428;2023-08-06T00:38:32;13.70;99.90
13186;DHT22;6658;53.080;7.428;2023-08-06T00:41:16;13.70;99.90
13186;DHT22;6658;53.080;7.428;2023-08-06T00:43:45;13.80;99.90
13186;DHT22;6658;53.080;7.428;2023-08-06T00:46:52;13.80;99.90
13186;DHT22;6658;53.080;7.428;2023-08-06T00:49:18;13.90;99.90
13186;DHT22;6658;53.080;7.428;2023-08-06T00:51:53;13.90;99.90
13186;DHT22;6658;53.080;7.428;2023-08-06T00:54:34;13.90;99.90
13186;DHT22;6658;53.080;7.428;2023-08-06T00:57:16;14.00;99.90
13186;DHT22;6658;53.080;7.428;2023-08-06T01:00:20;14.00;99.90
13186;DHT22;6658;53.080;7.428;2023-08-06T01:02:49;14.00;99.90
13186;DHT22;6658;53.080;7.428;2023-08-06T01:05:15;14.00;99.90
13186;DHT22;6658;53.080;7.428;2023-08-06T01:10:39;14.00;99.90
13186;DHT22;6658;53.080;7.428;2023-08-06T01:13:33;14.00;99.90
13186;DHT22;6658;53.080;7.428;2023-08-06T01:16:09;14.00;99.90
13186;DHT22;6658;53.080;7.428;2023-08-06T01:18:39;14.00;99.90
13186;DHT22;6658;53.080;7.428;2023-08-06T01:21:32;14.00;99.90
13186;DHT22;6658;53.080;7.428;2023-08-06T01:23:58;14.00;99.90
13186;DHT22;6658;53.080;7.428;2023-08-06T01:29:12;14.00;99.90
13186;DHT22;6658;53.080;7.428;2023-08-06T01:32:10;14.10;99.90
13186;DHT22;6658;53.080;7.428;2023-08-06T01:34:46;14.00;99.90
13186;DHT22;6658;53.080;7.428;2023-08-06T01:41:03;14.00;99.90
13186;DHT22;6658;53.080;7.428;2023-08-06T01:43:40;14.00;99.90
13186;DHT22;6658;53.080;7.428;2023-08-06T01:46:12;14.00;99.90
13186;DHT22;6658;53.080;7.428;2023-08-06T01:48:44;14.10;99.90
13186;DHT22;6658;53.080;7.428;2023-08-06T01:51:58;14.00;99.90
13186;DHT22;6658;53.080;7.428;2023-08-06T01:57:05;14.00;99.90
13186;DHT22;6658;53.080;7.428;2023-08-06T01:59:57;14.00;99.90
13186;DHT22;6658;53.080;7.428;2023-08-06T02:05:07;14.00;99.90
13186;DHT22;6658;53.080;7.428;2023-08-06T02:07:38;14.00;99.90
13186;DHT22;6658;53.080;7.428;2023-08-06T02:10:15;14.00;99.90
13186;DHT22;6658;53.080;7.428;2023-08-06T02:12:56;14.00;99.90
13186;DHT22;6658;53.080;7.428;2023-08-06T02:15:24;14.00;99.90
13186;DHT22;6658;53.080;7.428;2023-08-06T02:18:14;14.00;99.90
13186;DHT22;6658;53.080;7.428;2023-08-06T02:21:20;14.00;99.90
13186;DHT22;6658;53.080;7.428;2023-08-06T02:23:54;14.00;99.90
13186;DHT22;6658;53.080;7.428;2023-08-06T02:26:25;14.00;99.90
13186;DHT22;6658;53.080;7.428;2023-08-06T02:29:35;14.00;99.90
13186;DHT22;6658;53.080;7.428;2023-08-06T02:32:18;14.00;99.90
13186;DHT22;6658;53.080;7.428;2023-08-06T02:34:47;14.00;99.90
13186;DHT22;6658;53.080;7.428;2023-08-06T02:37:39;14.00;99.90
13186;DHT22;6658;53.080;7.428;2023-08-06T02:40:16;14.00;99.90
13186;DHT22;6658;53.080;7.428;2023-08-06T02:42:45;14.00;99.90
13186;DHT22;6658;53.080;7.428;2023-08-06T02:45:18;14.00;99.90
13186;DHT22;6658;53.080;7.428;2023-08-06T02:48:15;14.00;99.90
13186;DHT22;6658;53.080;7.428;2023-08-06T02:50:43;14.00;99.90
13186;DHT22;6658;53.080;7.428;2023-08-06T02:53:15;14.00;99.90
13186;DHT22;6658;53.080;7.428;2023-08-06T02:55:50;14.00;99.90
13186;DHT22;6658;53.080;7.428;2023-08-06T02:58:37;14.00;99.90
13186;DHT22;6658;53.080;7.428;2023-08-06T03:01:07;14.00;99.90
13186;DHT22;6658;53.080;7.428;2023-08-06T03:03:37;14.00;99.90
13186;DHT22;6658;53.080;7.428;2023-08-06T03:06:03;14.10;99.90
13186;DHT22;6658;53.080;7.428;2023-08-06T03:08:35;14.10;99.90
13186;DHT22;6658;53.080;7.428;2023-08-06T03:11:07;14.00;99.90
13186;DHT22;6658;53.080;7.428;2023-08-06T03:14:16;14.00;99.90
13186;DHT22;6658;53.080;7.428;2023-08-06T03:19:53;14.00;99.90
13186;DHT22;6658;53.080;7.428;2023-08-06T03:28:46;14.00;99.90
13186;DHT22;6658;53.080;7.428;2023-08-06T03:31:26;14.10;99.90
13186;DHT22;6658;53.080;7.428;2023-08-06T03:37:05;14.00;99.90
13186;DHT22;6658;53.080;7.428;2023-08-06T03:40:19;14.00;99.90
13186;DHT22;6658;53.080;7.428;2023-08-06T03:52:49;14.00;99.90
13186;DHT22;6658;53.080;7.428;2023-08-06T03:55:19;14.00;99.90
13186;DHT22;6658;53.080;7.428;2023-08-06T04:02:34;13.90;99.90
13186;DHT22;6658;53.080;7.428;2023-08-06T04:12:33;14.00;99.90
13186;DHT22;6658;53.080;7.428;2023-08-06T04:19:08;14.00;99.90
13186;DHT22;6658;53.080;7.428;2023-08-06T04:25:43;13.90;99.90
13186;DHT22;6658;53.080;7.428;2023-08-06T04:32:25;13.90;99.90
13186;DHT22;6658;53.080;7.428;2023-08-06T04:41:36;14.00;99.90
13186;DHT22;6658;53.080;7.428;2023-08-06T04:48:07;14.00;99.90
13186;DHT22;6658;53.080;7.428;2023-08-06T04:51:04;14.00;99.90
13186;DHT22;6658;53.080;7.428;2023-08-06T04:54:25;14.00;99.90
13186;DHT22;6658;53.080;7.428;2023-08-06T04:57:14;14.10;99.90
13186;DHT22;6658;53.080;7.428;2023-08-06T05:00:09;14.10;99.90
13186;DHT22;6658;53.080;7.428;2023-08-06T05:02:59;14.20;99.90
13186;DHT22;6658;53.080;7.428;2023-08-06T05:09:41;14.20;99.90
13186;DHT22;6658;53.080;7.428;2023-08-06T05:12:30;14.20;99.90
13186;DHT22;6658;53.080;7.428;2023-08-06T05:15:24;14.20;99.90
13186;DHT22;6658;53.080;7.428;2023-08-06T05:17:51;14.20;99.90
13186;DHT22;6658;53.080;7.428;2023-08-06T05:20:43;14.20;99.90
13186;DHT22;6658;53.080;7.428;2023-08-06T05:24:02;14.20;99.90
13186;DHT22;6658;53.080;7.428;2023-08-06T05:27:01;14.20;99.90
13186;DHT22;6658;53.080;7.428;2023-08-06T05:29:50;14.10;99.90
13186;DHT22;6658;53.080;7.428;2023-08-06T05:32:39;14.10;99.90
13186;DHT22;6658;53.080;7.428;2023-08-06T05:35:17;14.10;99.90
13186;DHT22;6658;53.080;7.428;2023-08-06T05:37:43;14.10;99.90
13186;DHT22;6658;53.080;7.428;2023-08-06T05:40:32;14.20;99.90
13186;DHT22;6658;53.080;7.428;2023-08-06T05:42:57;14.20;99.90
13186;DHT22;6658;53.080;7.428;2023-08-06T05:45:25;14.20;99.90
13186;DHT22;6658;53.080;7.428;2023-08-06T05:48:01;14.30;99.90
13186;DHT22;6658;53.080;7.428;2023-08-06T05:50:47;14.40;99.90
13186;DHT22;6658;53.080;7.428;2023-08-06T05:53:19;14.40;99.90
13186;DHT22;6658;53.080;7.428;2023-08-06T05:55:48;14.50;99.90
13186;DHT22;6658;53.080;7.428;2023-08-06T05:58:19;14.50;99.90
13186;DHT22;6658;53.080;7.428;2023-08-06T06:00:51;14.60;99.90
13186;DHT22;6658;53.080;7.428;2023-08-06T06:03:40;14.60;99.90
13186;DHT22;6658;53.080;7.428;2023-08-06T06:06:29;14.70;99.90
13186;DHT22;6658;53.080;7.428;2023-08-06T06:08:54;14.80;99.90
13186;DHT22;6658;53.080;7.428;2023-08-06T06:11:20;15.00;99.90
13186;DHT22;6658;53.080;7.428;2023-08-06T06:16:43;15.50;99.90
13186;DHT22;6658;53.080;7.428;2023-08-06T06:19:09;15.70;99.90
13186;DHT22;6658;53.080;7.428;2023-08-06T06:21:34;15.60;99.90
13186;DHT22;6658;53.080;7.428;2023-08-06T06:24:08;15.70;99.90
13186;DHT22;6658;53.080;7.428;2023-08-06T06:26:59;15.90;99.90
13186;DHT22;6658;53.080;7.428;2023-08-06T06:30:14;16.30;99.90
13186;DHT22;6658;53.080;7.428;2023-08-06T06:33:52;16.60;99.90
13186;DHT22;6658;53.080;7.428;2023-08-06T06:39:42;16.60;99.90
13186;DHT22;6658;53.080;7.428;2023-08-06T06:42:32;16.60;99.90
13186;DHT22;6658;53.080;7.428;2023-08-06T06:45:08;16.70;99.90
13186;DHT22;6658;53.080;7.428;2023-08-06T06:47:44;16.60;99.90
13186;DHT22;6658;53.080;7.428;2023-08-06T06:50:33;16.50;99.90
13186;DHT22;6658;53.080;7.428;2023-08-06T06:53:13;16.40;99.90
13186;DHT22;6658;53.080;7.428;2023-08-06T06:56:30;16.50;99.90
13186;DHT22;6658;53.080;7.428;2023-08-06T07:03:21;16.60;99.90
13186;DHT22;6658;53.080;7.428;2023-08-06T07:19:51;17.60;99.90
13186;DHT22;6658;53.080;7.428;2023-08-06T07:32:34;17.80;99.90
13186;DHT22;6658;53.080;7.428;2023-08-06T07:35:23;18.10;99.90
13186;DHT22;6658;53.080;7.428;2023-08-06T07:41:41;18.20;99.90
13186;DHT22;6658;53.080;7.428;2023-08-06T07:45:02;18.10;99.90
13186;DHT22;6658;53.080;7.428;2023-08-06T07:48:25;18.20;99.90
13186;DHT22;6658;53.080;7.428;2023-08-06T07:51:55;18.40;99.90
13186;DHT22;6658;53.080;7.428;2023-08-06T09:21:01;23.00;99.90
13186;DHT22;6658;53.080;7.428;2023-08-06T09:24:17;23.90;99.90
13186;DHT22;6658;53.080;7.428;2023-08-06T09:47:50;25.00;99.90
13186;DHT22;6658;53.080;7.428;2023-08-06T10:00:59;24.40;99.90
13186;DHT22;6658;53.080;7.428;2023-08-06T10:44:08;24.80;99.90
13186;DHT22;6658;53.080;7.428;2023-08-06T10:54:06;24.10;99.90
13186;DHT22;6658;53.080;7.428;2023-08-06T11:04:19;21.90;99.90
13186;DHT22;6658;53.080;7.428;2023-08-06T11:07:00;22.10;99.90
13186;DHT22;6658;53.080;7.428;2023-08-06T11:09:55;22.50;99.90
13186;DHT22;6658;53.080;7.428;2023-08-06T12:58:40;22.90;99.90
13186;DHT22;6658;53.080;7.428;2023-08-06T13:04:59;22.20;99.90
13186;DHT22;6658;53.080;7.428;2023-08-06T13:07:44;21.70;99.90
13186;DHT22;6658;53.080;7.428;2023-08-06T14:00:15;22.40;99.90
13186;DHT22;6658;53.080;7.428;2023-08-06T14:09:48;22.30;99.90
13186;DHT22;6658;53.080;7.428;2023-08-06T14:12:17;22.20;99.90
13186;DHT22;6658;53.080;7.428;2023-08-06T14:22:03;21.60;99.90
13186;DHT22;6658;53.080;7.428;2023-08-06T14:28:23;21.60;99.90
13186;DHT22;6658;53.080;7.428;2023-08-06T14:31:03;21.50;99.90
13186;DHT22;6658;53.080;7.428;2023-08-06T14:33:32;21.40;99.90
13186;DHT22;6658;53.080;7.428;2023-08-06T14:39:31;21.20;99.90
13186;DHT22;6658;53.080;7.428;2023-08-06T14:49:38;21.20;99.90
13186;DHT22;6658;53.080;7.428;2023-08-06T14:52:25;21.40;99.90
13186;DHT22;6658;53.080;7.428;2023-08-06T14:54:54;21.30;99.90
13186;DHT22;6658;53.080;7.428;2023-08-06T14:57:24;21.10;99.90
13186;DHT22;6658;53.080;7.428;2023-08-06T15:03:46;20.90;99.90
13186;DHT22;6658;53.080;7.428;2023-08-06T15:06:39;21.00;99.90
13186;DHT22;6658;53.080;7.428;2023-08-06T15:16:21;21.20;99.90
13186;DHT22;6658;53.080;7.428;2023-08-06T15:19:22;21.10;99.90
13186;DHT22;6658;53.080;7.428;2023-08-06T15:25:23;21.30;99.90
13186;DHT22;6658;53.080;7.428;2023-08-06T15:34:55;21.30;99.90
13186;DHT22;6658;53.080;7.428;2023-08-06T15:38:01;21.10;99.90
13186;DHT22;6658;53.080;7.428;2023-08-06T15:44:09;21.00;99.90
13186;DHT22;6658;53.080;7.428;2023-08-06T15:50:19;20.90;99.90
13186;DHT22;6658;53.080;7.428;2023-08-06T15:53:02;21.00;99.90
13186;DHT22;6658;53.080;7.428;2023-08-06T15:55:51;20.90;99.90
13186;DHT22;6658;53.080;7.428;2023-08-06T16:05:44;20.70;99.90
13186;DHT22;6658;53.080;7.428;2023-08-06T16:08:32;20.50;99.90
13186;DHT22;6658;53.080;7.428;2023-08-06T16:21:08;20.10;99.90
13186;DHT22;6658;53.080;7.428;2023-08-06T16:23:40;20.20;99.90
13186;DHT22;6658;53.080;7.428;2023-08-06T16:26:28;20.40;99.90
13186;DHT22;6658;53.080;7.428;2023-08-06T16:32:20;20.80;99.90
13186;DHT22;6658;53.080;7.428;2023-08-06T16:34:59;21.10;99.90
13186;DHT22;6658;53.080;7.428;2023-08-06T16:37:31;21.10;99.90
13186;DHT22;6658;53.080;7.428;2023-08-06T16:40:02;21.10;99.90
13186;DHT22;6658;53.080;7.428;2023-08-06T16:42:29;20.90;99.90
13186;DHT22;6658;53.080;7.428;2023-08-06T16:51:09;20.70;99.90
13186;DHT22;6658;53.080;7.428;2023-08-06T16:57:06;20.50;99.90
13186;DHT22;6658;53.080;7.428;2023-08-06T17:06:57;20.10;99.90
13186;DHT22;6658;53.080;7.428;2023-08-06T17:12:54;20.00;99.90
13186;DHT22;6658;53.080;7.428;2023-08-06T17:19:25;20.00;99.90
13186;DHT22;6658;53.080;7.428;2023-08-06T17:25:28;19.80;99.90
13186;DHT22;6658;53.080;7.428;2023-08-06T17:35:30;19.60;99.90
13186;DHT22;6658;53.080;7.428;2023-08-06T17:45:02;19.70;99.90
13186;DHT22;6658;53.080;7.428;2023-08-06T17:47:37;19.60;99.90
13186;DHT22;6658;53.080;7.428;2023-08-06T17:50:16;19.50;99.90
13186;DHT22;6658;53.080;7.428;2023-08-06T17:52:45;19.40;99.90
13186;DHT22;6658;53.080;7.428;2023-08-06T17:58:56;19.30;99.90
13186;DHT22;6658;53.080;7.428;2023-08-06T18:05:36;19.10;99.90
13186;DHT22;6658;53.080;7.428;2023-08-06T18:21:18;19.00;99.90
13186;DHT22;6658;53.080;7.428;2023-08-06T18:24:09;19.10;99.90
13186;DHT22;6658;53.080;7.428;2023-08-06T18:30:10;18.90;99.90
13186;DHT22;6658;53.080;7.428;2023-08-06T18:32:36;18.80;99.90
13186;DHT22;6658;53.080;7.428;2023-08-06T18:38:45;18.70;99.90
13186;DHT22;6658;53.080;7.428;2023-08-06T18:41:43;18.60;99.90
13186;DHT22;6658;53.080;7.428;2023-08-06T18:45:06;18.50;99.90
13186;DHT22;6658;53.080;7.428;2023-08-06T18:47:33;18.40;99.90
13186;DHT22;6658;53.080;7.428;2023-08-06T18:56:10;18.20;99.90
13186;DHT22;6658;53.080;7.428;2023-08-06T18:58:41;18.10;99.90
13186;DHT22;6658;53.080;7.428;2023-08-06T19:01:38;18.10;99.90
13186;DHT22;6658;53.080;7.428;2023-08-06T19:04:09;18.00;99.90
13186;DHT22;6658;53.080;7.428;2023-08-06T19:07:06;18.00;99.90
13186;DHT22;6658;53.080;7.428;2023-08-06T19:09:38;17.90;99.90
13186;DHT22;6658;53.080;7.428;2023-08-06T19:12:11;17.80;99.90
13186;DHT22;6658;53.080;7.428;2023-08-06T19:14:53;17.80;99.90
13186;DHT22;6658;53.080;7.428;2023-08-06T19:17:25;17.70;99.90
13186;DHT22;6658;53.080;7.428;2023-08-06T19:19:54;17.70;99.90
13186;DHT22;6658;53.080;7.428;2023-08-06T19:22:22;17.60;99.90
13186;DHT22;6658;53.080;7.428;2023-08-06T19:25:13;17.60;99.90
13186;DHT22;6658;53.080;7.428;2023-08-06T19:27:47;17.60;99.90
13186;DHT22;6658;53.080;7.428;2023-08-06T19:30:18;17.50;99.90
13186;DHT22;6658;53.080;7.428;2023-08-06T19:32:50;17.50;99.90
13186;DHT22;6658;53.080;7.428;2023-08-06T19:35:21;17.40;99.90
13186;DHT22;6658;53.080;7.428;2023-08-06T19:37:53;17.40;99.90
13186;DHT22;6658;53.080;7.428;2023-08-06T19:40:25;17.30;99.90
13186;DHT22;6658;53.080;7.428;2023-08-06T19:42:51;17.20;99.90
13186;DHT22;6658;53.080;7.428;2023-08-06T19:45:22;17.20;99.90
13186;DHT22;6658;53.080;7.428;2023-08-06T19:48:19;17.10;99.90
13186;DHT22;6658;53.080;7.428;2023-08-06T19:51:06;17.00;99.90
13186;DHT22;6658;53.080;7.428;2023-08-06T19:54:25;16.90;99.90
13186;DHT22;6658;53.080;7.428;2023-08-06T19:57:02;16.90;99.90
13186;DHT22;6658;53.080;7.428;2023-08-06T19:59:38;16.80;99.90
13186;DHT22;6658;53.080;7.428;2023-08-06T20:02:10;16.80;99.90
13186;DHT22;6658;53.080;7.428;2023-08-06T20:04:39;16.70;99.90
13186;DHT22;6658;53.080;7.428;2023-08-06T20:07:22;16.70;99.90
13186;DHT22;6658;53.080;7.428;2023-08-06T20:10:07;16.70;99.90
13186;DHT22;6658;53.080;7.428;2023-08-06T20:12:36;16.70;99.90
13186;DHT22;6658;53.080;7.428;2023-08-06T20:17:46;16.60;99.90
13186;DHT22;6658;53.080;7.428;2023-08-06T20:20:18;16.60;99.90
13186;DHT22;6658;53.080;7.428;2023-08-06T20:25:53;16.40;99.90
13186;DHT22;6658;53.080;7.428;2023-08-06T20:28:45;16.30;99.90
13186;DHT22;6658;53.080;7.428;2023-08-06T20:38:25;16.20;99.90
13186;DHT22;6658;53.080;7.428;2023-08-06T20:41:24;16.00;99.90
13186;DHT22;6658;53.080;7.428;2023-08-06T20:44:22;15.90;99.90
13186;DHT22;6658;53.080;7.428;2023-08-06T20:47:23;15.90;99.90
13186;DHT22;6658;53.080;7.428;2023-08-06T20:55:14;15.70;99.90
13186;DHT22;6658;53.080;7.428;2023-08-06T21:01:17;15.70;99.90
13186;DHT22;6658;53.080;7.428;2023-08-06T21:03:43;15.70;99.90
13186;DHT22;6658;53.080;7.428;2023-08-06T21:06:17;15.70;99.90
13186;DHT22;6658;53.080;7.428;2023-08-06T21:09:02;15.70;99.90
13186;DHT22;6658;53.080;7.428;2023-08-06T21:12:09;15.70;99.90
13186;DHT22;6658;53.080;7.428;2023-08-06T21:14:46;15.70;99.90
13186;DHT22;6658;53.080;7.428;2023-08-06T21:17:35;15.70;99.90
13186;DHT22;6658;53.080;7.428;2023-08-06T21:26:21;15.80;99.90
13186;DHT22;6658;53.080;7.428;2023-08-06T21:29:30;15.80;99.90
13186;DHT22;6658;53.080;7.428;2023-08-06T21:32:21;15.80;99.90
13186;DHT22;6658;53.080;7.428;2023-08-06T21:35:42;15.90;99.90
13186;DHT22;6658;53.080;7.428;2023-08-06T21:41:27;15.80;99.90
13186;DHT22;6658;53.080;7.428;2023-08-06T21:44:19;15.80;99.90
13186;DHT22;6658;53.080;7.428;2023-08-06T21:47:10;15.70;99.90
13186;DHT22;6658;53.080;7.428;2023-08-06T21:49:57;15.60;99.90
13186;DHT22;6658;53.080;7.428;2023-08-06T21:55:56;15.60;99.90
13186;DHT22;6658;53.080;7.428;2023-08-06T21:58:28;15.60;99.90
13186;DHT22;6658;53.080;7.428;2023-08-06T22:01:12;15.50;99.90
13186;DHT22;6658;53.080;7.428;2023-08-06T22:03:57;15.40;99.90
13186;DHT22;6658;53.080;7.428;2023-08-06T22:06:39;15.40;99.90
13186;DHT22;6658;53.080;7.428;2023-08-06T22:12:17;15.30;99.90
13186;DHT22;6658;53.080;7.428;2023-08-06T22:14:43;15.20;99.90
13186;DHT22;6658;53.080;7.428;2023-08-06T22:23:24;15.20;99.90
13186;DHT22;6658;53.080;7.428;2023-08-06T22:25:50;15.10;99.90
13186;DHT22;6658;53.080;7.428;2023-08-06T22:28:24;15.10;99.90
13186;DHT22;6658;53.080;7.428;2023-08-06T22:30:52;15.10;99.90
13186;DHT22;6658;53.080;7.428;2023-08-06T22:33:56;15.10;99.90
13186;DHT22;6658;53.080;7.428;2023-08-06T22:36:50;15.10;99.90
13186;DHT22;6658;53.080;7.428;2023-08-06T22:39:30;15.00;99.90
13186;DHT22;6658;53.080;7.428;2023-08-06T22:42:01;15.00;99.90
13186;DHT22;6658;53.080;7.428;2023-08-06T22:45:06;15.00;99.90
13186;DHT22;6658;53.080;7.428;2023-08-06T22:50:48;15.00;99.90
13186;DHT22;6658;53.080;7.428;2023-08-06T22:53:22;15.00;99.90
13186;DHT22;6658;53.080;7.428;2023-08-06T22:55:53;15.00;99.90
13186;DHT22;6658;53.080;7.428;2023-08-06T22:58:19;15.00;99.90
13186;DHT22;6658;53.080;7.428;2023-08-06T23:00:47;15.00;99.90
13186;DHT22;6658;53.080;7.428;2023-08-06T23:06:23;15.00;99.90
13186;DHT22;6658;53.080;7.428;2023-08-06T23:12:02;15.00;99.90
13186;DHT22;6658;53.080;7.428;2023-08-06T23:14:51;15.00;99.90
13186;DHT22;6658;53.080;7.428;2023-08-06T23:17:20;15.00;99.90
13186;DHT22;6658;53.080;7.428;2023-08-06T23:19:45;14.90;99.90
13186;DHT22;6658;53.080;7.428;2023-08-06T23:22:14;14.90;99.90
13186;DHT22;6658;53.080;7.428;2023-08-06T23:24:40;14.90;99.90
13186;DHT22;6658;53.080;7.428;2023-08-06T23:27:12;14.90;99.90
13186;DHT22;6658;53.080;7.428;2023-08-06T23:29:57;14.90;99.90
13186;DHT22;6658;53.080;7.428;2023-08-06T23:33:10;14.90;99.90
13186;DHT22;6658;53.080;7.428;2023-08-06T23:35:36;14.90;99.90
13186;DHT22;6658;53.080;7.428;2023-08-06T23:38:22;14.90;99.90
13186;DHT22;6658;53.080;7.428;2023-08-06T23:44:05;14.90;99.90
13186;DHT22;6658;53.080;7.428;2023-08-06T23:46:33;14.90;99.90
13186;DHT22;6658;53.080;7.428;2023-08-06T23:49:10;14.80;99.90
13186;DHT22;6658;53.080;7.428;2023-08-06T23:51:56;14.80;99.90
13186;DHT22;6658;53.080;7.428;2023-08-06T23:57:55;14.80;99.90
